sensor_id;sensor_type;location;lat;lon;timestamp;pressure;altitude;pressure_sealevel;temperature
45393;BMP280;31129;44.810;10.334;2023-11-21T00:01:26;100122.91;;;12.41
45393;BMP280;31129;44.810;10.334;2023-11-21T00:03:52;100107.78;;;12.40
45393;BMP280;31129;44.810;10.334;2023-11-21T00:06:20;100111.25;;;12.41
45393;BMP280;31129;44.810;10.334;2023-11-21T00:08:45;100122.19;;;12.47
45393;BMP280;31129;44.810;10.334;2023-11-21T00:11:11;100122.91;;;12.41
45393;BMP280;31129;44.810;10.334;2023-11-21T00:13:37;100119.19;;;12.39
45393;BMP280;31129;44.810;10.334;2023-11-21T00:16:06;100110.16;;;12.27
45393;BMP280;31129;44.810;10.334;2023-11-21T00:18:32;100087.78;;;12.23
45393;BMP280;31129;44.810;10.334;2023-11-21T00:20:58;100083.56;;;12.28
45393;BMP280;31129;44.810;10.334;2023-11-21T00:23:24;100074.84;;;12.18
45393;BMP280;31129;44.810;10.334;2023-11-21T00:25:49;100049.47;;;12.23
45393;BMP280;31129;44.810;10.334;2023-11-21T00:28:15;100035.53;;;12.16
45393;BMP280;31129;44.810;10.334;2023-11-21T00:30:40;100031.78;;;12.13
45393;BMP280;31129;44.810;10.334;2023-11-21T00:33:07;100037.53;;;12.09
45393;BMP280;31129;44.810;10.334;2023-11-21T01:08:44;100052.94;;;12.13
45393;BMP280;31129;44.810;10.334;2023-11-21T01:11:11;100053.91;;;12.04
45393;BMP280;31129;44.810;10.334;2023-11-21T01:13:38;100067.31;;;12.02
45393;BMP280;31129;44.810;10.334;2023-11-21T01:16:05;100075.06;;;12.09
45393;BMP280;31129;44.810;10.334;2023-11-21T01:18:32;100080.81;;;12.22
45393;BMP280;31129;44.810;10.334;2023-11-21T01:20:57;100076.75;;;12.06
45393;BMP280;31129;44.810;10.334;2023-11-21T01:23:23;100081.72;;;12.08
45393;BMP280;31129;44.810;10.334;2023-11-21T01:25:48;100077.03;;;12.08
45393;BMP280;31129;44.810;10.334;2023-11-21T01:28:14;100066.63;;;12.13
45393;BMP280;31129;44.810;10.334;2023-11-21T01:30:42;100070.88;;;12.19
45393;BMP280;31129;44.810;10.334;2023-11-21T01:33:08;100078.28;;;12.13
45393;BMP280;31129;44.810;10.334;2023-11-21T01:35:33;100072.03;;;12.07
45393;BMP280;31129;44.810;10.334;2023-11-21T01:37:59;100084.19;;;12.06
45393;BMP280;31129;44.810;10.334;2023-11-21T01:40:24;100084.84;;;12.38
45393;BMP280;31129;44.810;10.334;2023-11-21T01:42:50;100083.78;;;12.19
45393;BMP280;31129;44.810;10.334;2023-11-21T01:45:15;100075.50;;;12.02
45393;BMP280;31129;44.810;10.334;2023-11-21T01:47:41;100077.75;;;12.03
45393;BMP280;31129;44.810;10.334;2023-11-21T01:50:13;100079.78;;;12.08
45393;BMP280;31129;44.810;10.334;2023-11-21T01:52:39;100077.50;;;12.07
45393;BMP280;31129;44.810;10.334;2023-11-21T01:55:07;100072.31;;;12.15
45393;BMP280;31129;44.810;10.334;2023-11-21T01:57:37;100069.06;;;12.05
45393;BMP280;31129;44.810;10.334;2023-11-21T02:00:05;100069.84;;;12.11
45393;BMP280;31129;44.810;10.334;2023-11-21T02:02:44;100064.16;;;12.20
45393;BMP280;31129;44.810;10.334;2023-11-21T02:05:11;100068.63;;;12.12
45393;BMP280;31129;44.810;10.334;2023-11-21T02:07:39;100064.38;;;12.17
45393;BMP280;31129;44.810;10.334;2023-11-21T02:10:06;100068.88;;;12.20
45393;BMP280;31129;44.810;10.334;2023-11-21T02:12:32;100066.09;;;12.08
45393;BMP280;31129;44.810;10.334;2023-11-21T02:14:57;100063.91;;;12.18
45393;BMP280;31129;44.810;10.334;2023-11-21T02:17:23;100059.41;;;12.21
45393;BMP280;31129;44.810;10.334;2023-11-21T02:19:48;100057.22;;;12.25
45393;BMP280;31129;44.810;10.334;2023-11-21T02:22:18;100068.13;;;12.19
45393;BMP280;31129;44.810;10.334;2023-11-21T02:24:45;100070.13;;;12.19
45393;BMP280;31129;44.810;10.334;2023-11-21T02:27:13;100061.19;;;12.24
45393;BMP280;31129;44.810;10.334;2023-11-21T02:29:38;100055.69;;;12.18
45393;BMP280;31129;44.810;10.334;2023-11-21T02:32:04;100050.97;;;12.19
45393;BMP280;31129;44.810;10.334;2023-11-21T02:34:30;100056.69;;;12.21
45393;BMP280;31129;44.810;10.334;2023-11-21T02:36:56;100049.72;;;12.20
45393;BMP280;31129;44.810;10.334;2023-11-21T02:39:22;100043.56;;;12.25
45393;BMP280;31129;44.810;10.334;2023-11-21T02:41:48;100051.50;;;12.28
45393;BMP280;31129;44.810;10.334;2023-11-21T02:44:14;100043.56;;;12.30
45393;BMP280;31129;44.810;10.334;2023-11-21T02:46:40;100034.59;;;12.24
45393;BMP280;31129;44.810;10.334;2023-11-21T02:49:06;100031.38;;;12.26
45393;BMP280;31129;44.810;10.334;2023-11-21T02:51:32;100029.09;;;12.19
45393;BMP280;31129;44.810;10.334;2023-11-21T02:53:59;100027.59;;;12.18
45393;BMP280;31129;44.810;10.334;2023-11-21T02:56:27;100026.66;;;12.32
45393;BMP280;31129;44.810;10.334;2023-11-21T02:58:55;100032.88;;;12.27
45393;BMP280;31129;44.810;10.334;2023-11-21T03:01:20;100028.59;;;12.20
45393;BMP280;31129;44.810;10.334;2023-11-21T03:03:46;100030.59;;;12.20
45393;BMP280;31129;44.810;10.334;2023-11-21T03:06:19;100032.81;;;12.16
45393;BMP280;31129;44.810;10.334;2023-11-21T03:08:46;100030.34;;;12.12
45393;BMP280;31129;44.810;10.334;2023-11-21T03:11:12;100021.88;;;12.10
45393;BMP280;31129;44.810;10.334;2023-11-21T03:13:41;100022.88;;;12.13
45393;BMP280;31129;44.810;10.334;2023-11-21T03:16:10;100006.41;;;12.07
45393;BMP280;31129;44.810;10.334;2023-11-21T03:18:39;100010.63;;;12.08
45393;BMP280;31129;44.810;10.334;2023-11-21T03:21:08;100006.19;;;12.05
45393;BMP280;31129;44.810;10.334;2023-11-21T03:23:35;100012.66;;;12.13
45393;BMP280;31129;44.810;10.334;2023-11-21T03:26:03;100005.94;;;12.14
45393;BMP280;31129;44.810;10.334;2023-11-21T03:28:29;100005.19;;;12.14
45393;BMP280;31129;44.810;10.334;2023-11-21T03:30:56;100004.72;;;12.15
45393;BMP280;31129;44.810;10.334;2023-11-21T03:33:21;100003.97;;;12.15
45393;BMP280;31129;44.810;10.334;2023-11-21T03:35:47;100009.97;;;12.30
45393;BMP280;31129;44.810;10.334;2023-11-21T03:38:13;100007.44;;;12.15
45393;BMP280;31129;44.810;10.334;2023-11-21T03:40:38;100006.50;;;12.24
45393;BMP280;31129;44.810;10.334;2023-11-21T03:43:05;100006.22;;;12.27
45393;BMP280;31129;44.810;10.334;2023-11-21T03:45:31;99997.78;;;12.31
45393;BMP280;31129;44.810;10.334;2023-11-21T03:47:57;100000.03;;;12.32
45393;BMP280;31129;44.810;10.334;2023-11-21T03:50:22;99998.28;;;12.24
45393;BMP280;31129;44.810;10.334;2023-11-21T03:52:48;99995.00;;;12.08
45393;BMP280;31129;44.810;10.334;2023-11-21T03:55:13;99997.75;;;12.14
45393;BMP280;31129;44.810;10.334;2023-11-21T03:57:42;99995.53;;;12.18
45393;BMP280;31129;44.810;10.334;2023-11-21T04:00:07;100006.97;;;12.11
45393;BMP280;31129;44.810;10.334;2023-11-21T04:02:37;100010.63;;;12.08
45393;BMP280;31129;44.810;10.334;2023-11-21T04:05:03;100003.97;;;12.09
45393;BMP280;31129;44.810;10.334;2023-11-21T04:07:28;99993.97;;;12.06
45393;BMP280;31129;44.810;10.334;2023-11-21T04:09:54;99994.03;;;12.17
45393;BMP280;31129;44.810;10.334;2023-11-21T04:12:19;100002.72;;;12.21
45393;BMP280;31129;44.810;10.334;2023-11-21T04:14:45;100000.47;;;12.08
45393;BMP280;31129;44.810;10.334;2023-11-21T04:17:13;100006.47;;;12.13
45393;BMP280;31129;44.810;10.334;2023-11-21T04:19:38;100014.41;;;12.11
45393;BMP280;31129;44.810;10.334;2023-11-21T04:22:04;100020.81;;;12.02
45393;BMP280;31129;44.810;10.334;2023-11-21T04:24:29;100019.53;;;11.92
45393;BMP280;31129;44.810;10.334;2023-11-21T04:26:55;100012.34;;;11.94
45393;BMP280;31129;44.810;10.334;2023-11-21T04:29:20;100005.41;;;11.93
45393;BMP280;31129;44.810;10.334;2023-11-21T04:31:46;100005.41;;;11.93
45393;BMP280;31129;44.810;10.334;2023-11-21T04:34:14;100001.13;;;11.87
45393;BMP280;31129;44.810;10.334;2023-11-21T04:36:39;99999.16;;;11.93
45393;BMP280;31129;44.810;10.334;2023-11-21T04:39:05;99991.19;;;11.89
45393;BMP280;31129;44.810;10.334;2023-11-21T04:41:31;99989.75;;;11.99
45393;BMP280;31129;44.810;10.334;2023-11-21T04:43:57;99997.94;;;11.99
45393;BMP280;31129;44.810;10.334;2023-11-21T04:46:23;99997.72;;;11.97
45393;BMP280;31129;44.810;10.334;2023-11-21T04:48:49;100003.28;;;11.77
45393;BMP280;31129;44.810;10.334;2023-11-21T04:51:14;100001.56;;;11.74
45393;BMP280;31129;44.810;10.334;2023-11-21T04:53:40;99998.38;;;11.81
45393;BMP280;31129;44.810;10.334;2023-11-21T04:56:06;100002.63;;;11.82
45393;BMP280;31129;44.810;10.334;2023-11-21T04:58:31;99997.06;;;11.71
45393;BMP280;31129;44.810;10.334;2023-11-21T05:00:58;100009.50;;;11.78
45393;BMP280;31129;44.810;10.334;2023-11-21T05:03:23;99995.09;;;11.66
45393;BMP280;31129;44.810;10.334;2023-11-21T05:05:49;100008.00;;;11.71
45393;BMP280;31129;44.810;10.334;2023-11-21T05:08:33;99996.00;;;11.57
45393;BMP280;31129;44.810;10.334;2023-11-21T05:10:58;99993.00;;;11.55
45393;BMP280;31129;44.810;10.334;2023-11-21T05:13:24;99988.06;;;11.59
45393;BMP280;31129;44.810;10.334;2023-11-21T05:15:56;99985.38;;;11.65
45393;BMP280;31129;44.810;10.334;2023-11-21T05:18:22;99987.38;;;11.64
45393;BMP280;31129;44.810;10.334;2023-11-21T05:20:48;99995.34;;;11.68
45393;BMP280;31129;44.810;10.334;2023-11-21T05:23:13;99993.59;;;11.65
45393;BMP280;31129;44.810;10.334;2023-11-21T05:25:38;100000.06;;;11.67
45393;BMP280;31129;44.810;10.334;2023-11-21T05:28:04;100005.53;;;11.67
45393;BMP280;31129;44.810;10.334;2023-11-21T05:30:29;99997.59;;;11.69
45393;BMP280;31129;44.810;10.334;2023-11-21T05:32:55;99998.00;;;11.57
45393;BMP280;31129;44.810;10.334;2023-11-21T05:35:20;99988.06;;;11.54
45393;BMP280;31129;44.810;10.334;2023-11-21T05:37:46;99987.56;;;11.55
45393;BMP280;31129;44.810;10.334;2023-11-21T05:40:12;99985.56;;;11.56
45393;BMP280;31129;44.810;10.334;2023-11-21T05:42:39;99975.16;;;11.60
45393;BMP280;31129;44.810;10.334;2023-11-21T05:45:08;99979.19;;;11.70
45393;BMP280;31129;44.810;10.334;2023-11-21T05:47:36;99974.97;;;11.69
45393;BMP280;31129;44.810;10.334;2023-11-21T05:50:03;99979.94;;;11.70
45393;BMP280;31129;44.810;10.334;2023-11-21T05:52:30;99990.81;;;11.54
45393;BMP280;31129;44.810;10.334;2023-11-21T05:54:58;99995.75;;;11.55
45393;BMP280;31129;44.810;10.334;2023-11-21T05:57:23;99992.03;;;11.53
45393;BMP280;31129;44.810;10.334;2023-11-21T05:59:48;99991.28;;;11.52
45393;BMP280;31129;44.810;10.334;2023-11-21T06:02:14;99994.50;;;11.56
45393;BMP280;31129;44.810;10.334;2023-11-21T06:04:39;99997.50;;;11.58
45393;BMP280;31129;44.810;10.334;2023-11-21T06:07:05;100001.25;;;11.61
45393;BMP280;31129;44.810;10.334;2023-11-21T06:09:30;99996.50;;;11.56
45393;BMP280;31129;44.810;10.334;2023-11-21T06:11:56;99988.56;;;11.52
45393;BMP280;31129;44.810;10.334;2023-11-21T06:14:21;99984.06;;;11.55
45393;BMP280;31129;44.810;10.334;2023-11-21T06:16:47;99996.00;;;11.52
45393;BMP280;31129;44.810;10.334;2023-11-21T06:19:12;100000.72;;;11.57
45393;BMP280;31129;44.810;10.334;2023-11-21T06:21:38;99997.22;;;11.51
45393;BMP280;31129;44.810;10.334;2023-11-21T06:24:04;99988.06;;;11.54
45393;BMP280;31129;44.810;10.334;2023-11-21T06:26:29;99991.28;;;11.58
45393;BMP280;31129;44.810;10.334;2023-11-21T06:28:57;99988.56;;;11.58
45393;BMP280;31129;44.810;10.334;2023-11-21T06:31:22;99979.91;;;11.65
45393;BMP280;31129;44.810;10.334;2023-11-21T06:33:48;99975.16;;;11.54
45393;BMP280;31129;44.810;10.334;2023-11-21T06:36:13;99975.16;;;11.60
45393;BMP280;31129;44.810;10.334;2023-11-21T06:38:39;99970.69;;;11.57
45393;BMP280;31129;44.810;10.334;2023-11-21T06:41:04;99977.88;;;11.54
45393;BMP280;31129;44.810;10.334;2023-11-21T06:43:30;99964.72;;;11.53
45393;BMP280;31129;44.810;10.334;2023-11-21T06:45:58;99964.72;;;11.53
45393;BMP280;31129;44.810;10.334;2023-11-21T06:48:23;99956.03;;;11.54
45393;BMP280;31129;44.810;10.334;2023-11-21T06:50:49;99959.00;;;11.56
45393;BMP280;31129;44.810;10.334;2023-11-21T06:53:14;99967.75;;;11.71
45393;BMP280;31129;44.810;10.334;2023-11-21T06:55:40;99963.78;;;11.72
45393;BMP280;31129;44.810;10.334;2023-11-21T06:58:05;99966.25;;;11.65
45393;BMP280;31129;44.810;10.334;2023-11-21T07:00:31;99960.31;;;11.66
45393;BMP280;31129;44.810;10.334;2023-11-21T07:02:56;99960.31;;;11.72
45393;BMP280;31129;44.810;10.334;2023-11-21T07:05:22;99965.53;;;11.70
45393;BMP280;31129;44.810;10.334;2023-11-21T07:07:48;99957.06;;;11.62
45393;BMP280;31129;44.810;10.334;2023-11-21T07:10:14;99961.06;;;11.72
45393;BMP280;31129;44.810;10.334;2023-11-21T07:12:40;99956.34;;;11.73
45393;BMP280;31129;44.810;10.334;2023-11-21T07:15:09;99956.59;;;11.75
45393;BMP280;31129;44.810;10.334;2023-11-21T07:17:35;99949.38;;;11.72
45393;BMP280;31129;44.810;10.334;2023-11-21T07:20:02;99945.91;;;11.66
45393;BMP280;31129;44.810;10.334;2023-11-21T07:22:27;99953.34;;;11.65
45393;BMP280;31129;44.810;10.334;2023-11-21T07:24:53;99951.84;;;11.64
45393;BMP280;31129;44.810;10.334;2023-11-21T07:27:19;99952.59;;;11.65
45393;BMP280;31129;44.810;10.334;2023-11-21T07:29:44;99944.13;;;11.63
45393;BMP280;31129;44.810;10.334;2023-11-21T07:32:10;99942.69;;;11.67
45393;BMP280;31129;44.810;10.334;2023-11-21T07:34:38;99949.38;;;11.78
45393;BMP280;31129;44.810;10.334;2023-11-21T07:37:04;99956.09;;;11.65
45393;BMP280;31129;44.810;10.334;2023-11-21T07:39:29;99951.38;;;11.66
45393;BMP280;31129;44.810;10.334;2023-11-21T07:41:55;99956.75;;;11.55
45393;BMP280;31129;44.810;10.334;2023-11-21T07:44:21;99958.50;;;11.58
45393;BMP280;31129;44.810;10.334;2023-11-21T07:46:47;99967.47;;;11.58
45393;BMP280;31129;44.810;10.334;2023-11-21T07:49:12;99965.47;;;11.53
45393;BMP280;31129;44.810;10.334;2023-11-21T07:51:43;99964.75;;;11.64
45393;BMP280;31129;44.810;10.334;2023-11-21T07:54:09;99968.78;;;11.68
45393;BMP280;31129;44.810;10.334;2023-11-21T07:56:35;99966.00;;;11.63
45393;BMP280;31129;44.810;10.334;2023-11-21T07:59:01;99962.75;;;11.59
45393;BMP280;31129;44.810;10.334;2023-11-21T08:01:26;99973.44;;;11.62
45393;BMP280;31129;44.810;10.334;2023-11-21T08:03:54;99984.41;;;11.73
45393;BMP280;31129;44.810;10.334;2023-11-21T08:06:25;99983.19;;;11.74
45393;BMP280;31129;44.810;10.334;2023-11-21T08:08:51;99983.22;;;11.80
45393;BMP280;31129;44.810;10.334;2023-11-21T08:11:16;99976.72;;;11.72
45393;BMP280;31129;44.810;10.334;2023-11-21T08:13:42;99974.72;;;11.72
45393;BMP280;31129;44.810;10.334;2023-11-21T08:16:07;99971.50;;;11.74
45393;BMP280;31129;44.810;10.334;2023-11-21T08:18:33;99963.78;;;11.72
45393;BMP280;31129;44.810;10.334;2023-11-21T08:20:59;99959.81;;;11.73
45393;BMP280;31129;44.810;10.334;2023-11-21T08:23:25;99962.56;;;11.73
45393;BMP280;31129;44.810;10.334;2023-11-21T08:25:52;99970.25;;;11.69
45393;BMP280;31129;44.810;10.334;2023-11-21T08:28:18;99955.81;;;11.63
45393;BMP280;31129;44.810;10.334;2023-11-21T08:30:43;99958.06;;;11.70
45393;BMP280;31129;44.810;10.334;2023-11-21T08:33:12;99962.56;;;11.73
45393;BMP280;31129;44.810;10.334;2023-11-21T08:35:38;99965.31;;;11.79
45393;BMP280;31129;44.810;10.334;2023-11-21T08:38:04;99965.03;;;11.77
45393;BMP280;31129;44.810;10.334;2023-11-21T08:40:29;99960.13;;;11.81
45393;BMP280;31129;44.810;10.334;2023-11-21T08:42:55;99966.81;;;11.80
45393;BMP280;31129;44.810;10.334;2023-11-21T08:45:21;99969.53;;;11.74
45393;BMP280;31129;44.810;10.334;2023-11-21T08:47:47;99972.78;;;11.79
45393;BMP280;31129;44.810;10.334;2023-11-21T08:50:13;99975.00;;;11.74
45393;BMP280;31129;44.810;10.334;2023-11-21T08:52:40;99963.31;;;11.74
45393;BMP280;31129;44.810;10.334;2023-11-21T08:55:06;99969.34;;;11.84
45393;BMP280;31129;44.810;10.334;2023-11-21T08:57:38;99972.28;;;11.86
45393;BMP280;31129;44.810;10.334;2023-11-21T09:00:04;99975.06;;;11.91
45393;BMP280;31129;44.810;10.334;2023-11-21T09:02:36;99977.97;;;11.77
45393;BMP280;31129;44.810;10.334;2023-11-21T09:05:03;99987.63;;;11.66
45393;BMP280;31129;44.810;10.334;2023-11-21T09:07:29;99978.19;;;11.67
45393;BMP280;31129;44.810;10.334;2023-11-21T09:09:55;99975.97;;;11.71
45393;BMP280;31129;44.810;10.334;2023-11-21T09:12:20;99980.19;;;11.67
45393;BMP280;31129;44.810;10.334;2023-11-21T09:14:47;99971.72;;;11.70
45393;BMP280;31129;44.810;10.334;2023-11-21T09:17:12;99971.25;;;11.78
45393;BMP280;31129;44.810;10.334;2023-11-21T09:19:38;99974.50;;;11.76
45393;BMP280;31129;44.810;10.334;2023-11-21T09:22:04;99974.94;;;11.63
45393;BMP280;31129;44.810;10.334;2023-11-21T09:24:31;99979.16;;;11.64
45393;BMP280;31129;44.810;10.334;2023-11-21T09:26:56;99978.94;;;11.68
45393;BMP280;31129;44.810;10.334;2023-11-21T09:29:22;99970.19;;;11.58
45393;BMP280;31129;44.810;10.334;2023-11-21T09:31:47;99966.69;;;11.52
45393;BMP280;31129;44.810;10.334;2023-11-21T09:34:13;99962.22;;;11.55
45393;BMP280;31129;44.810;10.334;2023-11-21T09:36:40;99962.53;;;11.62
45393;BMP280;31129;44.810;10.334;2023-11-21T09:39:06;99959.78;;;11.62
45393;BMP280;31129;44.810;10.334;2023-11-21T09:41:43;99948.34;;;11.58
45393;BMP280;31129;44.810;10.334;2023-11-21T09:44:11;99949.38;;;11.66
45393;BMP280;31129;44.810;10.334;2023-11-21T09:46:40;99943.66;;;11.64
45393;BMP280;31129;44.810;10.334;2023-11-21T09:49:09;99937.16;;;11.62
45393;BMP280;31129;44.810;10.334;2023-11-21T09:51:39;99942.63;;;11.62
45393;BMP280;31129;44.810;10.334;2023-11-21T09:54:09;99950.88;;;11.73
45393;BMP280;31129;44.810;10.334;2023-11-21T09:56:36;99955.84;;;11.74
45393;BMP280;31129;44.810;10.334;2023-11-21T09:59:05;99957.91;;;11.91
45393;BMP280;31129;44.810;10.334;2023-11-21T10:01:36;99951.69;;;11.90
45393;BMP280;31129;44.810;10.334;2023-11-21T10:04:01;99950.94;;;11.90
45393;BMP280;31129;44.810;10.334;2023-11-21T10:06:28;99945.78;;;11.97
45393;BMP280;31129;44.810;10.334;2023-11-21T10:08:55;99936.53;;;11.89
45393;BMP280;31129;44.810;10.334;2023-11-21T10:11:24;99929.31;;;11.92
45393;BMP280;31129;44.810;10.334;2023-11-21T10:13:52;99924.88;;;11.94
45393;BMP280;31129;44.810;10.334;2023-11-21T10:16:19;99917.13;;;11.87
45393;BMP280;31129;44.810;10.334;2023-11-21T10:18:52;99913.66;;;11.87
45393;BMP280;31129;44.810;10.334;2023-11-21T10:21:21;99909.47;;;11.97
45393;BMP280;31129;44.810;10.334;2023-11-21T10:23:47;99901.50;;;11.99
45393;BMP280;31129;44.810;10.334;2023-11-21T10:26:12;99898.06;;;11.98
45393;BMP280;31129;44.810;10.334;2023-11-21T10:29:01;99893.06;;;12.08
45393;BMP280;31129;44.810;10.334;2023-11-21T10:31:30;99895.84;;;12.19
45393;BMP280;31129;44.810;10.334;2023-11-21T10:34:14;99896.09;;;12.10
45393;BMP280;31129;44.810;10.334;2023-11-21T10:36:40;99894.06;;;12.05
45393;BMP280;31129;44.810;10.334;2023-11-21T10:39:06;99891.09;;;11.97
45393;BMP280;31129;44.810;10.334;2023-11-21T10:41:32;99885.84;;;11.99
45393;BMP280;31129;44.810;10.334;2023-11-21T10:43:57;99887.88;;;12.10
45393;BMP280;31129;44.810;10.334;2023-11-21T10:46:23;99894.59;;;12.09
45393;BMP280;31129;44.810;10.334;2023-11-21T10:48:54;99889.59;;;12.07
45393;BMP280;31129;44.810;10.334;2023-11-21T10:51:22;99888.38;;;11.97
45393;BMP280;31129;44.810;10.334;2023-11-21T10:53:51;99886.84;;;12.07
45393;BMP280;31129;44.810;10.334;2023-11-21T10:56:18;99885.41;;;12.18
45393;BMP280;31129;44.810;10.334;2023-11-21T10:58:45;99880.94;;;12.20
45393;BMP280;31129;44.810;10.334;2023-11-21T11:01:11;99883.44;;;12.24
45393;BMP280;31129;44.810;10.334;2023-11-21T11:03:41;99883.13;;;12.22
45393;BMP280;31129;44.810;10.334;2023-11-21T11:06:07;99892.13;;;12.11
45393;BMP280;31129;44.810;10.334;2023-11-21T11:08:37;99891.13;;;12.20
45393;BMP280;31129;44.810;10.334;2023-11-21T11:11:05;99894.84;;;12.17
45393;BMP280;31129;44.810;10.334;2023-11-21T11:13:31;99900.06;;;12.20
45393;BMP280;31129;44.810;10.334;2023-11-21T11:16:00;99908.25;;;12.15
45393;BMP280;31129;44.810;10.334;2023-11-21T11:18:32;99905.56;;;12.26
45393;BMP280;31129;44.810;10.334;2023-11-21T11:21:22;99903.06;;;12.28
45393;BMP280;31129;44.810;10.334;2023-11-21T11:27:14;99885.16;;;12.43
45393;BMP280;31129;44.810;10.334;2023-11-21T11:29:52;99888.13;;;12.51
45393;BMP280;31129;44.810;10.334;2023-11-21T11:32:53;99897.81;;;12.63
45393;BMP280;31129;44.810;10.334;2023-11-21T11:35:33;99900.84;;;12.54
45393;BMP280;31129;44.810;10.334;2023-11-21T11:37:59;99912.75;;;12.62
45393;BMP280;31129;44.810;10.334;2023-11-21T11:40:41;99905.53;;;12.65
45393;BMP280;31129;44.810;10.334;2023-11-21T11:43:09;99912.50;;;12.49
45393;BMP280;31129;44.810;10.334;2023-11-21T11:45:35;99913.00;;;12.64
45393;BMP280;31129;44.810;10.334;2023-11-21T11:48:01;99919.25;;;12.59
45393;BMP280;31129;44.810;10.334;2023-11-21T11:50:29;99920.47;;;12.53
45393;BMP280;31129;44.810;10.334;2023-11-21T11:53:12;99908.53;;;12.56
45393;BMP280;31129;44.810;10.334;2023-11-21T11:55:37;99904.31;;;12.71
45393;BMP280;31129;44.810;10.334;2023-11-21T11:58:05;99903.06;;;12.72
45393;BMP280;31129;44.810;10.334;2023-11-21T12:00:36;99896.09;;;12.71
45393;BMP280;31129;44.810;10.334;2023-11-21T12:03:06;99897.81;;;12.69
45393;BMP280;31129;44.810;10.334;2023-11-21T12:05:33;99901.53;;;12.77
45393;BMP280;31129;44.810;10.334;2023-11-21T12:08:07;99905.28;;;12.85
45393;BMP280;31129;44.810;10.334;2023-11-21T12:10:34;99906.50;;;12.90
45393;BMP280;31129;44.810;10.334;2023-11-21T12:13:01;99910.50;;;12.94
45393;BMP280;31129;44.810;10.334;2023-11-21T12:15:27;99915.72;;;12.92
45393;BMP280;31129;44.810;10.334;2023-11-21T12:17:57;99916.72;;;12.89
45393;BMP280;31129;44.810;10.334;2023-11-21T12:20:24;99907.00;;;12.94
45393;BMP280;31129;44.810;10.334;2023-11-21T12:22:56;99910.50;;;12.89
45393;BMP280;31129;44.810;10.334;2023-11-21T12:25:26;99899.97;;;13.09
45393;BMP280;31129;44.810;10.334;2023-11-21T12:27:55;99902.47;;;13.18
45393;BMP280;31129;44.810;10.334;2023-11-21T12:30:23;99900.69;;;13.32
45393;BMP280;31129;44.810;10.334;2023-11-21T12:32:50;99902.13;;;13.39
45393;BMP280;31129;44.810;10.334;2023-11-21T12:35:17;99901.38;;;13.38
45393;BMP280;31129;44.810;10.334;2023-11-21T12:37:45;99895.94;;;13.33
45393;BMP280;31129;44.810;10.334;2023-11-21T12:40:12;99903.59;;;13.45
45393;BMP280;31129;44.810;10.334;2023-11-21T12:42:44;99905.34;;;13.48
45393;BMP280;31129;44.810;10.334;2023-11-21T12:47:44;99914.88;;;13.83
45393;BMP280;31129;44.810;10.334;2023-11-21T12:50:10;99899.22;;;13.78
45393;BMP280;31129;44.810;10.334;2023-11-21T12:52:43;99891.22;;;13.74
45393;BMP280;31129;44.810;10.334;2023-11-21T12:55:22;99884.44;;;13.86
45393;BMP280;31129;44.810;10.334;2023-11-21T12:57:49;99882.03;;;13.72
45393;BMP280;31129;44.810;10.334;2023-11-21T13:00:18;99876.13;;;13.57
45393;BMP280;31129;44.810;10.334;2023-11-21T13:02:56;99878.47;;;13.82
45393;BMP280;31129;44.810;10.334;2023-11-21T13:05:30;99877.56;;;14.10
45393;BMP280;31129;44.810;10.334;2023-11-21T13:07:57;99872.22;;;14.17
45393;BMP280;31129;44.810;10.334;2023-11-21T13:10:24;99880.41;;;14.28
45393;BMP280;31129;44.810;10.334;2023-11-21T13:12:52;99879.97;;;14.19
45393;BMP280;31129;44.810;10.334;2023-11-21T13:15:18;99885.94;;;14.17
45393;BMP280;31129;44.810;10.334;2023-11-21T13:17:44;99888.03;;;14.06
45393;BMP280;31129;44.810;10.334;2023-11-21T13:20:13;99872.78;;;13.75
45393;BMP280;31129;44.810;10.334;2023-11-21T13:22:46;99876.28;;;13.75
45393;BMP280;31129;44.810;10.334;2023-11-21T13:25:12;99883.56;;;13.67
45393;BMP280;31129;44.810;10.334;2023-11-21T13:27:39;99882.03;;;13.72
45393;BMP280;31129;44.810;10.334;2023-11-21T13:30:06;99877.22;;;13.83
45393;BMP280;31129;44.810;10.334;2023-11-21T13:32:34;99888.25;;;13.78
45393;BMP280;31129;44.810;10.334;2023-11-21T13:34:59;99890.69;;;13.81
45393;BMP280;31129;44.810;10.334;2023-11-21T13:37:25;99888.31;;;13.67
45393;BMP280;31129;44.810;10.334;2023-11-21T13:39:53;99886.28;;;13.73
45393;BMP280;31129;44.810;10.334;2023-11-21T13:42:20;99887.03;;;13.68
45393;BMP280;31129;44.810;10.334;2023-11-21T13:44:56;99887.00;;;13.73
45393;BMP280;31129;44.810;10.334;2023-11-21T13:47:22;99886.03;;;13.71
45393;BMP280;31129;44.810;10.334;2023-11-21T13:49:50;99887.28;;;13.70
45393;BMP280;31129;44.810;10.334;2023-11-21T13:52:16;99894.50;;;13.67
45393;BMP280;31129;44.810;10.334;2023-11-21T13:54:42;99882.91;;;13.50
45393;BMP280;31129;44.810;10.334;2023-11-21T13:57:08;99889.97;;;13.34
45393;BMP280;31129;44.810;10.334;2023-11-21T13:59:35;99896.91;;;13.46
45393;BMP280;31129;44.810;10.334;2023-11-21T14:02:02;99896.84;;;13.52
45393;BMP280;31129;44.810;10.334;2023-11-21T14:04:42;99902.59;;;13.43
45393;BMP280;31129;44.810;10.334;2023-11-21T14:07:23;99901.94;;;13.31
45393;BMP280;31129;44.810;10.334;2023-11-21T14:09:57;99899.09;;;13.42
45393;BMP280;31129;44.810;10.334;2023-11-21T14:12:24;99901.63;;;13.40
45393;BMP280;31129;44.810;10.334;2023-11-21T14:14:49;99904.63;;;13.37
45393;BMP280;31129;44.810;10.334;2023-11-21T14:17:15;99906.38;;;13.40
45393;BMP280;31129;44.810;10.334;2023-11-21T14:19:40;99904.13;;;13.38
45393;BMP280;31129;44.810;10.334;2023-11-21T14:22:10;99902.16;;;13.33
45393;BMP280;31129;44.810;10.334;2023-11-21T14:24:35;99895.63;;;13.42
45393;BMP280;31129;44.810;10.334;2023-11-21T14:27:02;99906.38;;;13.40
45393;BMP280;31129;44.810;10.334;2023-11-21T14:29:29;99902.91;;;13.34
45393;BMP280;31129;44.810;10.334;2023-11-21T14:31:55;99906.91;;;13.33
45393;BMP280;31129;44.810;10.334;2023-11-21T14:34:25;99900.91;;;13.29